Terminal Aerodrome Forecast
Issued by NWS Anchorage, AK

Home | Current Version | Previous Version | Text Only | Print | Product List | Glossary On
Versions: 1 2 3 4 5 6 7 8 9 10 11 12 13 14 15 16 17 18 19 20 21 22 23 24 25 26 27 28 29 30 31 32 33 34
000
FTAK31 PANC 202114 AAB
TAFANC
TAF AMD
PANC 202114Z 2021/2124 17010KT P6SM VCSH BKN050
      TEMPO 2022/2024 17012G22KT
     FM210000 17012G22KT P6SM -SHRA OVC050
     FM211400 16010KT P6SM VCSH BKN060=

USA.gov is the U.S. government's official web portal to all federal, state and local government web resources and services.